Saint Catharines, Canada
Current Conditions -  °F | °C
As of 8:26 PM on Tuesday 21 Oct 2014 (Local Time) from CYSN Reporting Station
Rain Showers Rain Showers  
Wind Chill: 37°   Ceiling: 500
Heat Index: 45°   Visibility: 5mi
Dew Point: 45°   Wind: 17mph
Humidity: 100%   Direction: 30°NNE
Pressure: 30.07"   Gusts: 23mph
Location:  43.16°N, 79.25°W
Report Text: CYSN 220026Z 03015G20KT 5SM -SHRA BR BKN005 OVC012 07/07 A3007 RMK SF6SC2 SLP184
Loading
Personal Weather Stations






























Interactive Weather Map
Tropical Storm Tracking
New forecast layout! Learn more

10-Day Weather Forecast

Advertisements
Track Severe Weather on mobile